Overview Statistics Trail Chart Weather Telemetry Raw packets
 

This is the latest recevied weather packets stored in our database for station/object KF0RZX-13. If no packets are shown the sender has not sent any weather packets the latest 10 day(s).

<< 1 2 3 4 5 6 >>
Time Temp. Humidity Pressure Rain* Wind** Luminosity Snow
1788291750 27.78° C 35% 1018.6 hPa 0 mm - - -
1788289926 26.11° C 48% 1019.3 hPa 0 mm - - -
1788288122 25° C 50% 1019.6 hPa 0 mm - - -
1788286316 25° C 47% 1020 hPa 0 mm - - -
1788284511 23.89° C 54% 1020 hPa 0 mm - - -
1788282706 22.78° C 53% 1020.3 hPa 0 mm - - -
1788280901 22.22° C 57% 1020.3 hPa 0 mm - - -
1788279096 21.11° C 64% 1020.3 hPa 0 mm - - -
1788277292 21.11° C 64% 1020 hPa 0 mm - - -
1788275486 20° C 68% 1020 hPa 0 mm - - -
1788273682 18.89° C 73% 1020 hPa - - - -
1788271851 17.78° C 83% 1020 hPa 0 mm - - -
1788270046 17.78° C 83% 1019.6 hPa 0 mm - - -
1788268241 17.22° C 83% 1019.6 hPa 0 mm - - -
1788266436 17.78° C 83% 1019.3 hPa 0 mm - - -
1788264634 17.78° C 83% 1019 hPa 0 mm - - -
1788262811 17.78° C 83% 1019.3 hPa 0 mm - - -
1788261001 17.78° C 83% 1019.3 hPa 0 mm - - -
1788257374 17.78° C 77% 1019.3 hPa 0 mm - - -
1788255567 18.89° C 73% 1019.6 hPa 0 mm - - -
1788253761 18.89° C 73% 1019.3 hPa 0 mm - - -
1788251957 20° C 64% 1019.3 hPa 0 mm - - -
1788250151 18.89° C 68% 1019.3 hPa 0 mm - - -
1788248346 18.89° C 73% 1019.6 hPa 0 mm - - -
1788246541 18.89° C 73% 1019.6 hPa 0 mm - - -

* Rain latest hour (hover to see other rain measurements)
** Current wind speed in m/s (hover to see current wind gust speed)